createdAt,value
2023-04-27T00:01:14.461Z,13.03
2023-04-27T00:03:42.083Z,13.00
2023-04-27T00:06:09.780Z,12.93
2023-04-27T00:08:37.005Z,12.90
2023-04-27T00:11:03.769Z,13.01
2023-04-27T00:13:30.509Z,13.09
2023-04-27T00:15:56.998Z,13.18
2023-04-27T00:18:23.540Z,13.10
2023-04-27T00:20:50.077Z,13.06
2023-04-27T00:23:16.757Z,13.13
2023-04-27T00:25:43.274Z,13.14
2023-04-27T00:28:10.925Z,13.09
2023-04-27T00:30:37.699Z,13.11
2023-04-27T00:33:04.306Z,13.08
2023-04-27T00:35:32.728Z,13.04
2023-04-27T00:37:59.229Z,12.91
2023-04-27T00:40:26.787Z,12.94
2023-04-27T00:42:53.349Z,12.91
2023-04-27T00:45:19.851Z,12.91
2023-04-27T00:47:46.406Z,12.95
2023-04-27T00:50:13.110Z,13.00
2023-04-27T00:52:39.740Z,13.04
2023-04-27T00:55:07.141Z,13.00
2023-04-27T00:57:34.237Z,13.00
2023-04-27T01:00:02.144Z,12.99
2023-04-27T01:02:30.062Z,12.91
2023-04-27T01:04:56.782Z,12.92
2023-04-27T01:07:26.728Z,12.92
2023-04-27T01:09:53.414Z,12.96
2023-04-27T01:12:19.882Z,12.76
2023-04-27T01:14:47.817Z,12.75
2023-04-27T01:17:14.538Z,12.63
2023-04-27T01:19:41.145Z,12.66
2023-04-27T01:22:07.771Z,12.74
2023-04-27T01:24:34.272Z,12.73
2023-04-27T01:27:01.928Z,12.69
2023-04-27T01:29:28.552Z,12.75
2023-04-27T01:31:55.081Z,12.73
2023-04-27T01:34:22.832Z,12.74
2023-04-27T01:36:49.353Z,12.71
2023-04-27T01:39:16.315Z,12.65
2023-04-27T01:41:42.868Z,12.57
2023-04-27T01:44:09.682Z,12.59
2023-04-27T01:46:36.328Z,12.60
2023-04-27T01:49:02.915Z,12.49
2023-04-27T01:51:29.421Z,12.50
2023-04-27T01:53:55.954Z,12.45
2023-04-27T01:56:22.473Z,12.36
2023-04-27T01:58:49.013Z,12.38
2023-04-27T02:01:15.724Z,12.38
2023-04-27T02:03:42.677Z,12.32
2023-04-27T02:06:09.425Z,12.34
2023-04-27T02:08:35.984Z,12.27
2023-04-27T02:11:02.479Z,12.32
2023-04-27T02:13:28.988Z,12.30
2023-04-27T02:15:56.165Z,12.34
2023-04-27T02:18:23.002Z,12.34
2023-04-27T02:20:49.497Z,12.30
2023-04-27T02:23:16.154Z,12.34
2023-04-27T02:25:46.516Z,12.26
2023-04-27T02:28:14.018Z,12.28
2023-04-27T02:30:40.948Z,12.27
2023-04-27T02:33:07.689Z,12.28
2023-04-27T02:35:34.270Z,12.18
2023-04-27T02:38:00.732Z,12.16
2023-04-27T02:40:27.252Z,12.15
2023-04-27T02:42:53.736Z,12.18
2023-04-27T02:45:20.345Z,12.23
2023-04-27T02:47:46.877Z,12.27
2023-04-27T02:50:13.782Z,12.19
2023-04-27T02:52:40.345Z,12.35
2023-04-27T02:55:07.122Z,12.32
2023-04-27T02:57:33.673Z,12.32
2023-04-27T03:00:00.470Z,12.29
2023-04-27T03:02:27.626Z,12.32
2023-04-27T03:04:57.496Z,12.32
2023-04-27T03:07:24.079Z,12.39
2023-04-27T03:09:50.595Z,12.31
2023-04-27T03:12:17.418Z,12.21
2023-04-27T03:14:43.948Z,12.16
2023-04-27T03:17:10.489Z,12.18
2023-04-27T03:19:37.079Z,12.24
2023-04-27T03:22:03.801Z,12.14
2023-04-27T03:24:30.887Z,12.24
2023-04-27T03:26:57.363Z,12.23
2023-04-27T03:29:23.902Z,12.26
2023-04-27T03:31:50.592Z,12.26
2023-04-27T03:34:17.158Z,12.30
2023-04-27T03:36:43.740Z,12.27
2023-04-27T03:39:10.219Z,12.28
2023-04-27T03:41:36.777Z,12.32
2023-04-27T03:44:03.335Z,12.30
2023-04-27T03:46:30.187Z,12.24
2023-04-27T03:48:56.847Z,12.28
2023-04-27T03:51:23.470Z,12.27
2023-04-27T03:53:50.404Z,12.29
2023-04-27T03:56:17.222Z,12.34
2023-04-27T03:58:44.569Z,12.30
2023-04-27T04:01:14.803Z,12.23
2023-04-27T04:03:41.517Z,12.30
2023-04-27T04:06:08.817Z,12.25
2023-04-27T04:08:35.366Z,12.21
2023-04-27T04:11:01.928Z,12.26
2023-04-27T04:13:28.962Z,12.17
2023-04-27T04:16:06.937Z,12.18
2023-04-27T04:18:34.705Z,12.19
2023-04-27T04:21:01.259Z,12.26
2023-04-27T04:23:27.857Z,12.24
2023-04-27T04:25:56.629Z,12.22
2023-04-27T04:28:24.999Z,12.24
2023-04-27T04:30:52.358Z,12.26
2023-04-27T04:33:18.963Z,12.24
2023-04-27T04:35:46.102Z,12.28
2023-04-27T04:38:12.942Z,12.22
2023-04-27T04:40:41.961Z,12.20
2023-04-27T04:43:09.556Z,12.27
2023-04-27T04:45:36.526Z,12.25
2023-04-27T04:48:04.063Z,12.31
2023-04-27T04:50:30.736Z,12.34
2023-04-27T04:52:57.251Z,12.35
2023-04-27T04:55:26.109Z,12.35
2023-04-27T04:57:52.683Z,12.41
2023-04-27T05:00:19.314Z,12.42
2023-04-27T05:02:45.967Z,12.36
2023-04-27T05:05:12.577Z,12.29
2023-04-27T05:07:39.271Z,12.31
2023-04-27T05:10:06.386Z,12.38
2023-04-27T05:12:33.152Z,12.44
2023-04-27T05:14:59.659Z,12.47
2023-04-27T05:17:26.563Z,12.39
2023-04-27T05:19:53.264Z,12.50
2023-04-27T05:22:19.967Z,12.46
2023-04-27T05:24:46.532Z,12.55
2023-04-27T05:27:14.709Z,12.52
2023-04-27T05:29:41.206Z,12.49
2023-04-27T05:32:07.920Z,12.51
2023-04-27T05:34:34.480Z,12.43
2023-04-27T05:37:01.360Z,12.57
2023-04-27T05:39:27.895Z,12.40
2023-04-27T05:41:54.494Z,12.46
2023-04-27T05:44:21.043Z,12.57
2023-04-27T05:46:47.529Z,12.60
2023-04-27T05:49:14.137Z,12.41
2023-04-27T05:51:41.329Z,12.53
2023-04-27T05:54:08.526Z,12.77
2023-04-27T05:56:35.103Z,12.80
2023-04-27T05:59:02.663Z,12.75
2023-04-27T06:01:29.471Z,12.73
2023-04-27T06:03:56.138Z,12.95
2023-04-27T06:06:22.795Z,13.10
2023-04-27T06:08:49.309Z,13.18
2023-04-27T06:11:16.397Z,13.31
2023-04-27T06:13:43.409Z,13.24
2023-04-27T06:16:09.976Z,13.31
2023-04-27T06:18:36.548Z,13.30
2023-04-27T06:21:03.577Z,13.38
2023-04-27T06:23:30.133Z,13.53
2023-04-27T06:25:57.138Z,13.48
2023-04-27T06:28:23.653Z,13.71
2023-04-27T06:30:50.147Z,13.67
2023-04-27T06:33:16.729Z,13.71
2023-04-27T06:35:45.737Z,13.87
2023-04-27T06:38:13.865Z,13.87
2023-04-27T06:40:40.390Z,13.68
2023-04-27T06:43:06.875Z,13.93
2023-04-27T06:45:33.362Z,14.04
2023-04-27T06:47:59.874Z,13.99
2023-04-27T06:50:26.703Z,14.14
2023-04-27T06:52:53.401Z,13.94
2023-04-27T06:55:20.041Z,14.10
2023-04-27T06:57:46.518Z,14.21
2023-04-27T07:00:13.567Z,14.16
2023-04-27T07:02:40.129Z,13.83
2023-04-27T07:05:06.855Z,13.92
2023-04-27T07:07:33.370Z,14.09
2023-04-27T07:09:59.854Z,14.22
2023-04-27T07:12:26.883Z,14.18
2023-04-27T07:14:53.390Z,14.20
2023-04-27T07:17:20.080Z,14.27
2023-04-27T07:19:46.737Z,14.11
2023-04-27T07:22:13.322Z,14.43
2023-04-27T07:24:39.866Z,14.44
2023-04-27T07:27:07.155Z,14.60
2023-04-27T07:29:34.009Z,14.83
2023-04-27T07:32:00.998Z,15.00
2023-04-27T07:34:32.848Z,14.71
2023-04-27T07:37:05.492Z,15.06
2023-04-27T07:39:32.005Z,15.15
2023-04-27T07:41:58.471Z,15.28
2023-04-27T07:44:24.981Z,15.14
2023-04-27T07:46:58.511Z,14.99
2023-04-27T07:49:26.182Z,14.85
2023-04-27T07:51:52.707Z,15.04
2023-04-27T07:54:19.225Z,15.28
2023-04-27T07:56:45.858Z,15.49
2023-04-27T07:59:12.951Z,15.16
2023-04-27T08:01:39.799Z,15.38
2023-04-27T08:04:06.682Z,15.04
2023-04-27T08:06:33.824Z,15.34
2023-04-27T08:09:01.983Z,15.57
2023-04-27T08:11:28.516Z,15.10
2023-04-27T08:13:54.978Z,14.24
2023-04-27T08:16:21.501Z,14.03
2023-04-27T08:18:49.504Z,14.68
2023-04-27T08:21:16.197Z,15.21
2023-04-27T08:23:43.794Z,15.05
2023-04-27T08:26:14.849Z,15.43
2023-04-27T08:28:41.312Z,15.61
2023-04-27T08:31:07.833Z,15.76
2023-04-27T08:33:34.392Z,16.10
2023-04-27T08:36:01.084Z,15.29
2023-04-27T08:38:27.665Z,15.70
2023-04-27T08:40:54.261Z,15.17
2023-04-27T08:43:20.812Z,15.76
2023-04-27T08:45:50.143Z,16.15
2023-04-27T08:48:16.813Z,15.95
2023-04-27T08:50:44.838Z,16.16
2023-04-27T08:53:21.458Z,15.89
2023-04-27T08:55:48.407Z,15.55
2023-04-27T08:58:14.896Z,15.56
2023-04-27T09:00:43.622Z,15.99
2023-04-27T09:03:26.039Z,16.40
2023-04-27T09:06:04.470Z,16.23
2023-04-27T09:08:46.381Z,15.47
2023-04-27T09:11:16.558Z,15.94
2023-04-27T09:13:45.258Z,15.62
2023-04-27T09:16:15.099Z,15.54
2023-04-27T09:18:43.512Z,15.38
2023-04-27T09:21:10.088Z,15.50
2023-04-27T09:23:38.609Z,15.28
2023-04-27T09:26:09.803Z,15.62
2023-04-27T09:28:40.302Z,15.46
2023-04-27T09:31:09.265Z,15.85
2023-04-27T09:33:36.663Z,15.75
2023-04-27T09:36:06.780Z,15.51
2023-04-27T09:38:33.485Z,15.08
2023-04-27T09:41:00.486Z,16.35
2023-04-27T09:43:28.795Z,16.31
2023-04-27T09:45:55.717Z,16.43
2023-04-27T09:48:23.872Z,16.76
2023-04-27T09:50:51.920Z,16.97
2023-04-27T09:53:26.443Z,17.39
2023-04-27T09:56:11.437Z,16.59
2023-04-27T09:59:07.672Z,16.32
2023-04-27T10:01:47.633Z,16.99
2023-04-27T10:04:42.832Z,17.07
2023-04-27T10:07:12.848Z,17.36
2023-04-27T10:09:45.183Z,16.87
2023-04-27T10:12:14.675Z,17.50
2023-04-27T10:14:51.984Z,16.94
2023-04-27T10:17:19.796Z,17.49
2023-04-27T10:19:56.666Z,17.09
2023-04-27T10:22:24.986Z,17.09
2023-04-27T10:24:52.156Z,16.79
2023-04-27T10:27:21.666Z,17.70
2023-04-27T10:29:49.614Z,17.98
2023-04-27T10:32:26.345Z,17.87
2023-04-27T10:35:05.164Z,17.54
2023-04-27T10:37:42.340Z,17.64
2023-04-27T10:40:19.300Z,16.65
2023-04-27T10:42:49.198Z,16.98
2023-04-27T10:45:28.458Z,17.69
2023-04-27T10:48:01.117Z,17.95
2023-04-27T10:50:28.088Z,18.38
2023-04-27T10:52:54.606Z,18.52
2023-04-27T10:55:22.347Z,19.01
2023-04-27T10:57:51.126Z,18.83
2023-04-27T11:00:35.155Z,18.70
2023-04-27T11:03:12.584Z,17.90
2023-04-27T11:05:40.425Z,17.97
2023-04-27T11:08:08.259Z,17.51
2023-04-27T11:10:35.896Z,17.84
2023-04-27T11:13:10.195Z,17.69
2023-04-27T11:15:47.620Z,17.04
2023-04-27T11:18:15.714Z,18.28
2023-04-27T11:20:48.588Z,18.73
2023-04-27T11:23:28.805Z,18.71
2023-04-27T11:25:56.425Z,19.72
2023-04-27T11:28:24.175Z,18.90
2023-04-27T11:31:00.750Z,19.63
2023-04-27T11:33:27.954Z,19.39
2023-04-27T11:35:54.546Z,18.95
2023-04-27T11:38:21.931Z,20.02
2023-04-27T11:41:01.592Z,20.88
2023-04-27T11:43:28.481Z,21.49
2023-04-27T11:45:56.153Z,21.41
2023-04-27T11:48:23.419Z,20.58
2023-04-27T11:50:50.820Z,20.61
2023-04-27T11:53:19.000Z,19.80
2023-04-27T11:55:52.546Z,19.83
2023-04-27T11:58:19.200Z,20.46
2023-04-27T12:00:47.524Z,21.37
2023-04-27T12:03:14.257Z,19.27
2023-04-27T12:05:49.331Z,20.33
2023-04-27T12:08:17.043Z,20.44
2023-04-27T12:10:44.343Z,20.40
2023-04-27T12:13:11.810Z,19.28
2023-04-27T12:15:39.036Z,18.92
2023-04-27T12:18:06.257Z,19.24
2023-04-27T12:20:33.992Z,18.92
2023-04-27T12:23:00.748Z,18.47
2023-04-27T12:25:27.248Z,18.56
2023-04-27T12:27:54.281Z,18.89
2023-04-27T12:30:23.158Z,19.62
2023-04-27T12:32:49.641Z,20.47
2023-04-27T12:35:16.209Z,20.95
2023-04-27T12:37:42.872Z,21.14
2023-04-27T12:40:10.016Z,20.31
2023-04-27T12:42:36.610Z,19.65
2023-04-27T12:45:04.549Z,20.50
2023-04-27T12:47:53.907Z,20.32
2023-04-27T12:50:18.571Z,20.04
2023-04-27T12:52:45.166Z,18.89
2023-04-27T12:55:24.817Z,20.25
2023-04-27T12:57:58.268Z,20.97
2023-04-27T13:00:25.278Z,20.50
2023-04-27T13:02:52.765Z,19.93
2023-04-27T13:05:19.904Z,19.91
2023-04-27T13:07:46.718Z,18.69
2023-04-27T13:10:13.225Z,19.58
2023-04-27T13:12:39.710Z,19.82
2023-04-27T13:15:07.804Z,20.11
2023-04-27T13:17:34.383Z,20.21
2023-04-27T13:20:01.036Z,20.42
2023-04-27T13:22:28.017Z,20.87
2023-04-27T13:24:54.873Z,19.57
2023-04-27T13:27:22.479Z,19.89
2023-04-27T13:29:51.164Z,20.92
2023-04-27T13:32:18.610Z,21.01
2023-04-27T13:34:45.425Z,21.45
2023-04-27T13:37:12.176Z,21.16
2023-04-27T13:39:38.696Z,21.66
2023-04-27T13:42:06.198Z,21.26
2023-04-27T13:44:32.860Z,21.29
2023-04-27T13:46:59.374Z,21.11
2023-04-27T13:49:25.976Z,21.48
2023-04-27T13:51:52.428Z,21.80
2023-04-27T13:54:18.946Z,20.91
2023-04-27T13:56:45.673Z,20.87
2023-04-27T13:59:12.475Z,20.86
2023-04-27T14:01:40.039Z,20.36
2023-04-27T14:04:06.787Z,20.36
2023-04-27T14:06:33.436Z,20.47
2023-04-27T14:08:59.915Z,21.02
2023-04-27T14:11:26.307Z,21.13
2023-04-27T14:13:52.741Z,21.65
2023-04-27T14:16:19.329Z,21.84
2023-04-27T14:18:45.913Z,21.97
2023-04-27T14:21:12.531Z,20.62
2023-04-27T14:23:38.943Z,20.45
2023-04-27T14:26:05.807Z,20.67
2023-04-27T14:28:32.351Z,20.98
2023-04-27T14:30:59.259Z,21.31
2023-04-27T14:33:25.936Z,21.43
2023-04-27T14:35:52.424Z,21.42
2023-04-27T14:38:18.895Z,20.98
2023-04-27T14:40:45.759Z,20.83
2023-04-27T14:43:12.255Z,21.18
2023-04-27T14:45:50.106Z,21.43
2023-04-27T14:48:18.164Z,21.56
2023-04-27T14:50:44.885Z,21.66
2023-04-27T14:53:11.344Z,21.65
2023-04-27T14:55:37.872Z,21.14
2023-04-27T14:58:04.369Z,20.87
2023-04-27T15:00:31.477Z,21.13
2023-04-27T15:02:58.026Z,21.08
2023-04-27T15:05:25.159Z,21.44
2023-04-27T15:07:51.654Z,21.49
2023-04-27T15:10:18.283Z,21.59
2023-04-27T15:12:45.485Z,21.46
2023-04-27T15:15:12.900Z,21.57
2023-04-27T15:17:39.625Z,20.98
2023-04-27T15:20:06.858Z,20.44
2023-04-27T15:22:33.506Z,20.29
2023-04-27T15:25:00.045Z,20.36
2023-04-27T15:27:26.532Z,20.50
2023-04-27T15:29:58.034Z,20.55
2023-04-27T15:32:29.786Z,20.26
2023-04-27T15:34:59.930Z,20.50
2023-04-27T15:37:28.092Z,20.66
2023-04-27T15:39:55.243Z,20.89
2023-04-27T15:42:21.799Z,21.07
2023-04-27T15:44:48.329Z,21.26
2023-04-27T15:47:15.319Z,20.80
2023-04-27T15:49:53.668Z,20.94
2023-04-27T15:52:23.055Z,20.36
2023-04-27T15:54:49.547Z,20.25
2023-04-27T15:57:16.157Z,19.78
2023-04-27T15:59:42.656Z,20.16
2023-04-27T16:02:09.356Z,20.62
2023-04-27T16:04:35.903Z,20.72
2023-04-27T16:07:02.515Z,19.81
2023-04-27T16:09:29.081Z,20.58
2023-04-27T16:11:55.815Z,20.87
2023-04-27T16:14:22.332Z,20.77
2023-04-27T16:16:48.831Z,20.56
2023-04-27T16:19:16.034Z,21.04
2023-04-27T16:21:42.761Z,20.65
2023-04-27T16:24:09.291Z,20.93
2023-04-27T16:26:35.736Z,21.12
2023-04-27T16:29:02.219Z,20.35
2023-04-27T16:31:28.927Z,20.30
2023-04-27T16:33:55.472Z,20.89
2023-04-27T16:36:22.040Z,20.87
2023-04-27T16:38:48.508Z,20.93
2023-04-27T16:41:15.001Z,20.94
2023-04-27T16:43:41.496Z,20.61
2023-04-27T16:46:09.977Z,20.82
2023-04-27T16:48:36.700Z,21.44
2023-04-27T16:51:03.803Z,21.46
2023-04-27T16:53:30.268Z,21.18
2023-04-27T16:55:59.502Z,21.31
2023-04-27T16:58:26.020Z,20.95
2023-04-27T17:00:52.567Z,20.92
2023-04-27T17:03:19.129Z,20.75
2023-04-27T17:05:45.816Z,20.56
2023-04-27T17:08:13.319Z,20.26
2023-04-27T17:10:39.881Z,20.02
2023-04-27T17:13:07.692Z,19.98
2023-04-27T17:15:34.267Z,20.26
2023-04-27T17:18:04.500Z,20.23
2023-04-27T17:20:31.211Z,20.44
2023-04-27T17:22:57.924Z,20.34
2023-04-27T17:25:24.485Z,20.06
2023-04-27T17:27:51.259Z,20.10
2023-04-27T17:30:17.782Z,19.99
2023-04-27T17:32:44.351Z,19.95
2023-04-27T17:35:11.571Z,20.00
2023-04-27T17:37:38.103Z,19.86
2023-04-27T17:40:07.868Z,19.86
2023-04-27T17:42:34.365Z,19.88
2023-04-27T17:45:01.043Z,19.79
2023-04-27T17:47:27.785Z,19.64
2023-04-27T17:49:54.498Z,19.65
2023-04-27T17:52:20.996Z,19.48
2023-04-27T17:54:48.405Z,19.44
2023-04-27T17:57:14.898Z,19.39
2023-04-27T17:59:41.488Z,19.33
2023-04-27T18:02:08.159Z,19.29
2023-04-27T18:04:34.996Z,19.16
2023-04-27T18:07:01.634Z,19.18
2023-04-27T18:09:29.428Z,19.15
2023-04-27T18:11:57.262Z,19.14
2023-04-27T18:14:23.757Z,19.11
2023-04-27T18:16:50.517Z,19.08
2023-04-27T18:19:17.456Z,19.05
2023-04-27T18:21:44.132Z,18.96
2023-04-27T18:24:10.639Z,18.94
2023-04-27T18:26:37.323Z,18.81
2023-04-27T18:29:03.944Z,18.73
2023-04-27T18:31:30.433Z,18.77
2023-04-27T18:33:56.985Z,18.72
2023-04-27T18:36:25.576Z,18.67
2023-04-27T18:38:52.195Z,18.58
2023-04-27T18:41:19.277Z,18.57
2023-04-27T18:43:45.941Z,18.53
2023-04-27T18:46:12.527Z,18.41
2023-04-27T18:48:39.074Z,18.39
2023-04-27T18:51:05.556Z,18.29
2023-04-27T18:53:32.092Z,18.22
2023-04-27T18:55:58.722Z,18.19
2023-04-27T18:58:25.289Z,18.17
2023-04-27T19:00:52.148Z,18.13
2023-04-27T19:03:19.202Z,18.18
2023-04-27T19:05:46.101Z,18.16
2023-04-27T19:08:12.875Z,18.14
2023-04-27T19:10:42.517Z,18.07
2023-04-27T19:13:09.121Z,18.13
2023-04-27T19:15:35.776Z,18.10
2023-04-27T19:18:10.665Z,18.04
2023-04-27T19:20:39.012Z,17.97
2023-04-27T19:23:05.839Z,17.97
2023-04-27T19:25:32.535Z,17.95
2023-04-27T19:27:59.270Z,17.96
2023-04-27T19:30:26.317Z,17.88
2023-04-27T19:32:52.909Z,17.87
2023-04-27T19:35:20.365Z,17.86
2023-04-27T19:37:46.895Z,17.83
2023-04-27T19:40:13.674Z,17.74
2023-04-27T19:42:40.353Z,17.69
2023-04-27T19:45:07.374Z,17.61
2023-04-27T19:47:33.997Z,17.49
2023-04-27T19:50:00.592Z,17.57
2023-04-27T19:52:27.195Z,17.56
2023-04-27T19:54:54.536Z,17.63
2023-04-27T19:57:21.610Z,17.61
2023-04-27T19:59:48.422Z,17.71
2023-04-27T20:02:15.400Z,17.74
2023-04-27T20:04:42.213Z,17.75
2023-04-27T20:07:09.625Z,17.70
2023-04-27T20:09:36.857Z,17.67
2023-04-27T20:12:04.195Z,17.66
2023-04-27T20:14:33.606Z,17.72
2023-04-27T20:17:00.549Z,17.68
2023-04-27T20:19:27.168Z,17.69
2023-04-27T20:21:54.177Z,17.52
2023-04-27T20:24:20.806Z,17.54
2023-04-27T20:26:47.427Z,17.57
2023-04-27T20:29:14.141Z,17.55
2023-04-27T20:31:41.103Z,17.55
2023-04-27T20:34:07.769Z,17.52
2023-04-27T20:36:34.323Z,17.50
2023-04-27T20:39:00.912Z,17.41
2023-04-27T20:41:27.890Z,17.46
2023-04-27T20:43:54.368Z,17.45
2023-04-27T20:46:21.034Z,17.45
2023-04-27T20:48:47.575Z,17.37
2023-04-27T20:51:14.106Z,17.32
2023-04-27T20:53:40.806Z,17.34
2023-04-27T20:56:07.366Z,17.34
2023-04-27T20:58:33.904Z,17.30
2023-04-27T21:01:00.460Z,17.25
2023-04-27T21:03:27.151Z,17.23
2023-04-27T21:05:54.234Z,17.27
2023-04-27T21:08:20.733Z,17.35
2023-04-27T21:10:47.252Z,17.27
2023-04-27T21:13:13.930Z,17.29
2023-04-27T21:15:40.732Z,17.26
2023-04-27T21:18:13.498Z,17.17
2023-04-27T21:20:45.654Z,17.21
2023-04-27T21:23:14.583Z,17.16
2023-04-27T21:25:45.185Z,17.17
2023-04-27T21:28:11.896Z,17.13
2023-04-27T21:30:38.442Z,17.01
2023-04-27T21:33:05.124Z,17.06
2023-04-27T21:35:31.922Z,17.05
2023-04-27T21:37:58.636Z,16.97
2023-04-27T21:40:25.159Z,16.91
2023-04-27T21:42:52.549Z,16.95
2023-04-27T21:45:19.327Z,16.88
2023-04-27T21:47:46.014Z,16.78
2023-04-27T21:50:12.873Z,16.82
2023-04-27T21:52:39.384Z,16.87
2023-04-27T21:55:06.004Z,16.77
2023-04-27T21:57:32.631Z,16.60
2023-04-27T21:59:59.561Z,16.66
2023-04-27T22:02:26.281Z,16.59
2023-04-27T22:04:53.053Z,16.57
2023-04-27T22:07:19.591Z,16.47
2023-04-27T22:09:46.312Z,16.54
2023-04-27T22:12:12.836Z,16.56
2023-04-27T22:14:39.373Z,16.52
2023-04-27T22:17:05.875Z,16.47
2023-04-27T22:19:32.372Z,16.46
2023-04-27T22:21:58.859Z,16.51
2023-04-27T22:24:25.460Z,16.50
2023-04-27T22:26:52.109Z,16.36
2023-04-27T22:29:18.608Z,16.27
2023-04-27T22:31:45.528Z,16.09
2023-04-27T22:34:12.904Z,15.92
2023-04-27T22:36:39.589Z,15.86
2023-04-27T22:39:07.152Z,15.88
2023-04-27T22:41:34.075Z,15.94
2023-04-27T22:44:00.669Z,15.86
2023-04-27T22:46:27.178Z,15.71
2023-04-27T22:48:53.940Z,15.75
2023-04-27T22:51:21.595Z,15.70
2023-04-27T22:53:48.752Z,15.68
2023-04-27T22:56:15.246Z,15.66
2023-04-27T22:58:41.724Z,15.63
2023-04-27T23:01:08.425Z,15.64
2023-04-27T23:03:35.289Z,15.50
2023-04-27T23:06:01.892Z,15.52
2023-04-27T23:08:28.926Z,15.56
2023-04-27T23:10:56.228Z,15.50
2023-04-27T23:13:26.670Z,15.60
2023-04-27T23:15:56.812Z,15.61
2023-04-27T23:18:23.711Z,15.40
2023-04-27T23:20:55.996Z,15.33
2023-04-27T23:23:22.502Z,15.11
2023-04-27T23:25:49.125Z,15.30
2023-04-27T23:28:15.730Z,15.13
2023-04-27T23:30:42.259Z,15.21
2023-04-27T23:33:08.781Z,15.37
2023-04-27T23:35:35.255Z,15.36
2023-04-27T23:38:01.779Z,15.54
2023-04-27T23:40:28.293Z,15.55
2023-04-27T23:42:55.718Z,15.64
2023-04-27T23:45:22.181Z,15.65
2023-04-27T23:47:48.685Z,15.73
2023-04-27T23:50:15.607Z,15.77
2023-04-27T23:52:42.634Z,15.82
2023-04-27T23:55:09.447Z,15.92
2023-04-27T23:57:36.115Z,15.94
